sensor_id;sensor_type;location;lat;lon;timestamp;P1;durP1;ratioP1;P2;durP2;ratioP2
82950;SDS011;72737;53.332;6.514;2024-02-26T00:01:28;5.05;;;2.13;;
82950;SDS011;72737;53.332;6.514;2024-02-26T00:03:57;6.53;;;2.08;;
82950;SDS011;72737;53.332;6.514;2024-02-26T00:06:24;6.30;;;2.20;;
82950;SDS011;72737;53.332;6.514;2024-02-26T00:08:50;6.55;;;2.30;;
82950;SDS011;72737;53.332;6.514;2024-02-26T00:11:15;5.18;;;1.98;;
82950;SDS011;72737;53.332;6.514;2024-02-26T00:13:40;6.43;;;2.40;;
82950;SDS011;72737;53.332;6.514;2024-02-26T00:16:06;5.43;;;1.80;;
82950;SDS011;72737;53.332;6.514;2024-02-26T00:18:32;5.53;;;2.00;;
82950;SDS011;72737;53.332;6.514;2024-02-26T00:20:58;5.72;;;2.00;;
82950;SDS011;72737;53.332;6.514;2024-02-26T00:23:24;5.05;;;2.00;;
82950;SDS011;72737;53.332;6.514;2024-02-26T00:25:50;4.82;;;1.92;;
82950;SDS011;72737;53.332;6.514;2024-02-26T00:28:15;4.70;;;2.10;;
82950;SDS011;72737;53.332;6.514;2024-02-26T00:30:43;7.40;;;2.17;;
82950;SDS011;72737;53.332;6.514;2024-02-26T00:33:08;5.15;;;2.00;;
82950;SDS011;72737;53.332;6.514;2024-02-26T00:35:33;4.57;;;1.92;;
82950;SDS011;72737;53.332;6.514;2024-02-26T00:37:59;4.65;;;1.70;;
82950;SDS011;72737;53.332;6.514;2024-02-26T00:40:25;4.40;;;1.52;;
82950;SDS011;72737;53.332;6.514;2024-02-26T00:42:51;5.88;;;2.00;;
82950;SDS011;72737;53.332;6.514;2024-02-26T00:45:16;4.32;;;1.75;;
82950;SDS011;72737;53.332;6.514;2024-02-26T00:47:42;5.22;;;1.90;;
82950;SDS011;72737;53.332;6.514;2024-02-26T00:50:09;6.07;;;1.90;;
82950;SDS011;72737;53.332;6.514;2024-02-26T00:52:35;7.05;;;1.80;;
82950;SDS011;72737;53.332;6.514;2024-02-26T00:55:01;5.28;;;1.70;;
82950;SDS011;72737;53.332;6.514;2024-02-26T00:57:27;5.90;;;1.70;;
82950;SDS011;72737;53.332;6.514;2024-02-26T00:59:54;7.25;;;1.83;;
82950;SDS011;72737;53.332;6.514;2024-02-26T01:02:21;5.45;;;1.60;;
82950;SDS011;72737;53.332;6.514;2024-02-26T01:04:47;5.25;;;1.60;;
82950;SDS011;72737;53.332;6.514;2024-02-26T01:07:13;4.95;;;1.38;;
82950;SDS011;72737;53.332;6.514;2024-02-26T01:09:39;4.80;;;1.67;;
82950;SDS011;72737;53.332;6.514;2024-02-26T01:12:04;4.90;;;1.67;;
82950;SDS011;72737;53.332;6.514;2024-02-26T01:14:30;3.72;;;1.30;;
82950;SDS011;72737;53.332;6.514;2024-02-26T01:16:56;4.40;;;1.60;;
82950;SDS011;72737;53.332;6.514;2024-02-26T01:19:21;3.90;;;1.40;;
82950;SDS011;72737;53.332;6.514;2024-02-26T01:21:47;5.45;;;1.48;;
82950;SDS011;72737;53.332;6.514;2024-02-26T01:24:12;5.32;;;1.65;;
82950;SDS011;72737;53.332;6.514;2024-02-26T01:26:38;4.07;;;1.58;;
82950;SDS011;72737;53.332;6.514;2024-02-26T01:29:03;3.53;;;1.35;;
82950;SDS011;72737;53.332;6.514;2024-02-26T01:31:29;5.82;;;1.60;;
82950;SDS011;72737;53.332;6.514;2024-02-26T01:33:54;3.67;;;1.50;;
82950;SDS011;72737;53.332;6.514;2024-02-26T01:36:20;4.32;;;1.50;;
82950;SDS011;72737;53.332;6.514;2024-02-26T01:38:46;3.67;;;1.40;;
82950;SDS011;72737;53.332;6.514;2024-02-26T01:41:13;4.32;;;1.40;;
82950;SDS011;72737;53.332;6.514;2024-02-26T01:43:39;4.45;;;1.30;;
82950;SDS011;72737;53.332;6.514;2024-02-26T01:46:04;3.97;;;1.40;;
82950;SDS011;72737;53.332;6.514;2024-02-26T01:50:57;4.75;;;1.20;;
82950;SDS011;72737;53.332;6.514;2024-02-26T01:53:23;4.60;;;1.20;;
82950;SDS011;72737;53.332;6.514;2024-02-26T01:55:49;3.70;;;1.40;;
82950;SDS011;72737;53.332;6.514;2024-02-26T01:58:15;3.10;;;1.30;;
82950;SDS011;72737;53.332;6.514;2024-02-26T02:00:41;4.57;;;1.30;;
82950;SDS011;72737;53.332;6.514;2024-02-26T02:03:07;3.15;;;1.23;;
82950;SDS011;72737;53.332;6.514;2024-02-26T02:05:32;3.83;;;1.42;;
82950;SDS011;72737;53.332;6.514;2024-02-26T02:07:59;3.78;;;1.33;;
82950;SDS011;72737;53.332;6.514;2024-02-26T02:10:26;3.53;;;1.38;;
82950;SDS011;72737;53.332;6.514;2024-02-26T02:12:52;3.42;;;1.30;;
82950;SDS011;72737;53.332;6.514;2024-02-26T02:15:17;2.80;;;1.20;;
82950;SDS011;72737;53.332;6.514;2024-02-26T02:17:43;4.60;;;1.33;;
82950;SDS011;72737;53.332;6.514;2024-02-26T02:20:09;3.20;;;1.20;;
82950;SDS011;72737;53.332;6.514;2024-02-26T02:22:40;6.38;;;1.50;;
82950;SDS011;72737;53.332;6.514;2024-02-26T02:25:05;5.47;;;1.35;;
82950;SDS011;72737;53.332;6.514;2024-02-26T02:27:31;3.10;;;1.20;;
82950;SDS011;72737;53.332;6.514;2024-02-26T02:29:57;4.20;;;1.13;;
82950;SDS011;72737;53.332;6.514;2024-02-26T02:32:22;3.97;;;1.17;;
82950;SDS011;72737;53.332;6.514;2024-02-26T02:34:49;2.50;;;1.10;;
82950;SDS011;72737;53.332;6.514;2024-02-26T02:37:14;3.35;;;1.02;;
82950;SDS011;72737;53.332;6.514;2024-02-26T02:39:41;3.03;;;1.10;;
82950;SDS011;72737;53.332;6.514;2024-02-26T02:42:08;3.22;;;1.40;;
82950;SDS011;72737;53.332;6.514;2024-02-26T02:44:34;3.45;;;1.17;;
82950;SDS011;72737;53.332;6.514;2024-02-26T02:46:59;3.20;;;1.33;;
82950;SDS011;72737;53.332;6.514;2024-02-26T02:49:24;2.45;;;1.20;;
82950;SDS011;72737;53.332;6.514;2024-02-26T02:51:51;2.30;;;1.13;;
82950;SDS011;72737;53.332;6.514;2024-02-26T02:54:19;3.08;;;1.17;;
82950;SDS011;72737;53.332;6.514;2024-02-26T02:56:44;3.55;;;1.20;;
82950;SDS011;72737;53.332;6.514;2024-02-26T02:59:10;3.05;;;1.08;;
82950;SDS011;72737;53.332;6.514;2024-02-26T03:01:35;3.13;;;1.10;;
82950;SDS011;72737;53.332;6.514;2024-02-26T03:04:00;4.32;;;0.93;;
82950;SDS011;72737;53.332;6.514;2024-02-26T03:06:26;2.78;;;1.00;;
82950;SDS011;72737;53.332;6.514;2024-02-26T03:08:52;2.63;;;0.90;;
82950;SDS011;72737;53.332;6.514;2024-02-26T03:11:19;2.33;;;1.00;;
82950;SDS011;72737;53.332;6.514;2024-02-26T03:13:45;2.97;;;1.10;;
82950;SDS011;72737;53.332;6.514;2024-02-26T03:16:10;3.17;;;0.90;;
82950;SDS011;72737;53.332;6.514;2024-02-26T03:18:38;3.50;;;1.02;;
82950;SDS011;72737;53.332;6.514;2024-02-26T03:21:06;1.77;;;0.90;;
82950;SDS011;72737;53.332;6.514;2024-02-26T03:23:33;2.92;;;1.00;;
82950;SDS011;72737;53.332;6.514;2024-02-26T03:26:02;2.80;;;0.80;;
82950;SDS011;72737;53.332;6.514;2024-02-26T03:28:29;2.45;;;1.10;;
82950;SDS011;72737;53.332;6.514;2024-02-26T03:33:21;3.05;;;1.00;;
82950;SDS011;72737;53.332;6.514;2024-02-26T03:35:46;2.85;;;0.90;;
82950;SDS011;72737;53.332;6.514;2024-02-26T03:38:13;2.38;;;0.80;;
82950;SDS011;72737;53.332;6.514;2024-02-26T03:40:38;3.47;;;1.10;;
82950;SDS011;72737;53.332;6.514;2024-02-26T03:43:03;2.20;;;0.90;;
82950;SDS011;72737;53.332;6.514;2024-02-26T03:45:33;3.78;;;1.00;;
82950;SDS011;72737;53.332;6.514;2024-02-26T03:47:58;1.80;;;0.98;;
82950;SDS011;72737;53.332;6.514;2024-02-26T03:50:24;2.80;;;0.90;;
82950;SDS011;72737;53.332;6.514;2024-02-26T03:52:49;2.60;;;0.70;;
82950;SDS011;72737;53.332;6.514;2024-02-26T03:55:15;2.13;;;0.88;;
82950;SDS011;72737;53.332;6.514;2024-02-26T03:57:43;3.00;;;1.02;;
82950;SDS011;72737;53.332;6.514;2024-02-26T04:00:08;3.13;;;1.13;;
82950;SDS011;72737;53.332;6.514;2024-02-26T04:02:34;3.97;;;1.10;;
82950;SDS011;72737;53.332;6.514;2024-02-26T04:05:00;2.95;;;0.90;;
82950;SDS011;72737;53.332;6.514;2024-02-26T04:07:25;3.15;;;0.80;;
82950;SDS011;72737;53.332;6.514;2024-02-26T04:09:51;2.80;;;0.95;;
82950;SDS011;72737;53.332;6.514;2024-02-26T04:12:16;1.60;;;1.00;;
82950;SDS011;72737;53.332;6.514;2024-02-26T04:14:42;2.08;;;0.80;;
82950;SDS011;72737;53.332;6.514;2024-02-26T04:17:07;2.83;;;0.73;;
82950;SDS011;72737;53.332;6.514;2024-02-26T04:19:32;1.65;;;0.68;;
82950;SDS011;72737;53.332;6.514;2024-02-26T04:21:58;2.97;;;0.80;;
82950;SDS011;72737;53.332;6.514;2024-02-26T04:24:24;2.30;;;0.80;;
82950;SDS011;72737;53.332;6.514;2024-02-26T04:26:49;1.77;;;0.80;;
82950;SDS011;72737;53.332;6.514;2024-02-26T04:29:15;1.63;;;0.73;;
82950;SDS011;72737;53.332;6.514;2024-02-26T04:31:40;3.63;;;0.80;;
82950;SDS011;72737;53.332;6.514;2024-02-26T04:34:07;2.03;;;1.00;;
82950;SDS011;72737;53.332;6.514;2024-02-26T04:36:33;3.63;;;0.90;;
82950;SDS011;72737;53.332;6.514;2024-02-26T04:38:58;2.55;;;0.90;;
82950;SDS011;72737;53.332;6.514;2024-02-26T04:41:24;2.17;;;0.80;;
82950;SDS011;72737;53.332;6.514;2024-02-26T04:43:49;4.05;;;0.98;;
82950;SDS011;72737;53.332;6.514;2024-02-26T04:46:16;2.90;;;0.75;;
82950;SDS011;72737;53.332;6.514;2024-02-26T04:48:41;2.25;;;0.70;;
82950;SDS011;72737;53.332;6.514;2024-02-26T04:51:07;2.90;;;0.85;;
82950;SDS011;72737;53.332;6.514;2024-02-26T04:53:32;4.28;;;1.10;;
82950;SDS011;72737;53.332;6.514;2024-02-26T04:55:58;2.22;;;0.90;;
82950;SDS011;72737;53.332;6.514;2024-02-26T04:58:23;2.40;;;0.70;;
82950;SDS011;72737;53.332;6.514;2024-02-26T05:00:49;3.05;;;0.90;;
82950;SDS011;72737;53.332;6.514;2024-02-26T05:03:14;4.20;;;0.95;;
82950;SDS011;72737;53.332;6.514;2024-02-26T05:05:41;2.30;;;0.80;;
82950;SDS011;72737;53.332;6.514;2024-02-26T05:08:08;3.25;;;0.82;;
82950;SDS011;72737;53.332;6.514;2024-02-26T05:10:34;2.90;;;0.60;;
82950;SDS011;72737;53.332;6.514;2024-02-26T05:13:04;2.30;;;0.70;;
82950;SDS011;72737;53.332;6.514;2024-02-26T05:15:30;2.42;;;0.70;;
82950;SDS011;72737;53.332;6.514;2024-02-26T05:17:55;1.65;;;0.70;;
82950;SDS011;72737;53.332;6.514;2024-02-26T05:20:21;3.55;;;0.85;;
82950;SDS011;72737;53.332;6.514;2024-02-26T05:22:46;4.85;;;0.80;;
82950;SDS011;72737;53.332;6.514;2024-02-26T05:25:14;3.40;;;0.80;;
82950;SDS011;72737;53.332;6.514;2024-02-26T05:27:40;2.33;;;0.60;;
82950;SDS011;72737;53.332;6.514;2024-02-26T05:30:07;3.22;;;0.60;;
82950;SDS011;72737;53.332;6.514;2024-02-26T05:32:34;3.25;;;0.80;;
82950;SDS011;72737;53.332;6.514;2024-02-26T05:34:59;1.35;;;0.50;;
82950;SDS011;72737;53.332;6.514;2024-02-26T05:37:27;2.28;;;0.82;;
82950;SDS011;72737;53.332;6.514;2024-02-26T05:39:54;2.17;;;0.80;;
82950;SDS011;72737;53.332;6.514;2024-02-26T05:42:21;4.13;;;0.75;;
82950;SDS011;72737;53.332;6.514;2024-02-26T05:44:47;1.40;;;0.60;;
82950;SDS011;72737;53.332;6.514;2024-02-26T05:47:12;3.53;;;0.70;;
82950;SDS011;72737;53.332;6.514;2024-02-26T05:49:39;4.72;;;1.00;;
82950;SDS011;72737;53.332;6.514;2024-02-26T05:52:05;1.88;;;0.60;;
82950;SDS011;72737;53.332;6.514;2024-02-26T05:54:31;2.72;;;0.80;;
82950;SDS011;72737;53.332;6.514;2024-02-26T05:56:58;3.08;;;0.80;;
82950;SDS011;72737;53.332;6.514;2024-02-26T05:59:24;2.30;;;0.80;;
82950;SDS011;72737;53.332;6.514;2024-02-26T06:01:49;2.13;;;0.70;;
82950;SDS011;72737;53.332;6.514;2024-02-26T06:04:15;1.45;;;0.70;;
82950;SDS011;72737;53.332;6.514;2024-02-26T06:06:42;1.90;;;0.70;;
82950;SDS011;72737;53.332;6.514;2024-02-26T06:09:07;1.52;;;0.60;;
82950;SDS011;72737;53.332;6.514;2024-02-26T06:11:33;3.78;;;0.70;;
82950;SDS011;72737;53.332;6.514;2024-02-26T06:13:58;2.13;;;0.60;;
82950;SDS011;72737;53.332;6.514;2024-02-26T06:16:24;5.00;;;0.90;;
82950;SDS011;72737;53.332;6.514;2024-02-26T06:18:49;1.38;;;0.68;;
82950;SDS011;72737;53.332;6.514;2024-02-26T06:21:15;2.53;;;0.90;;
82950;SDS011;72737;53.332;6.514;2024-02-26T06:23:40;3.53;;;0.82;;
82950;SDS011;72737;53.332;6.514;2024-02-26T06:26:06;1.85;;;0.90;;
82950;SDS011;72737;53.332;6.514;2024-02-26T06:28:31;2.72;;;0.77;;
82950;SDS011;72737;53.332;6.514;2024-02-26T06:30:59;4.40;;;0.88;;
82950;SDS011;72737;53.332;6.514;2024-02-26T06:33:25;2.83;;;0.90;;
82950;SDS011;72737;53.332;6.514;2024-02-26T06:35:50;1.88;;;0.75;;
82950;SDS011;72737;53.332;6.514;2024-02-26T06:38:16;3.22;;;0.80;;
82950;SDS011;72737;53.332;6.514;2024-02-26T06:40:43;3.67;;;0.80;;
82950;SDS011;72737;53.332;6.514;2024-02-26T06:43:09;4.07;;;0.90;;
82950;SDS011;72737;53.332;6.514;2024-02-26T06:45:35;2.67;;;0.60;;
82950;SDS011;72737;53.332;6.514;2024-02-26T06:48:00;2.65;;;0.80;;
82950;SDS011;72737;53.332;6.514;2024-02-26T06:50:27;4.00;;;0.93;;
82950;SDS011;72737;53.332;6.514;2024-02-26T06:52:53;2.17;;;0.70;;
82950;SDS011;72737;53.332;6.514;2024-02-26T06:55:18;3.90;;;0.90;;
82950;SDS011;72737;53.332;6.514;2024-02-26T06:57:44;3.20;;;0.70;;
82950;SDS011;72737;53.332;6.514;2024-02-26T07:00:09;2.15;;;0.73;;
82950;SDS011;72737;53.332;6.514;2024-02-26T07:02:39;1.70;;;0.70;;
82950;SDS011;72737;53.332;6.514;2024-02-26T07:05:05;3.40;;;0.90;;
82950;SDS011;72737;53.332;6.514;2024-02-26T07:07:31;2.33;;;0.80;;
82950;SDS011;72737;53.332;6.514;2024-02-26T07:09:57;3.15;;;0.80;;
82950;SDS011;72737;53.332;6.514;2024-02-26T07:12:22;2.33;;;0.60;;
82950;SDS011;72737;53.332;6.514;2024-02-26T07:14:49;2.38;;;0.63;;
82950;SDS011;72737;53.332;6.514;2024-02-26T07:17:16;2.80;;;0.75;;
82950;SDS011;72737;53.332;6.514;2024-02-26T07:19:42;2.42;;;0.73;;
82950;SDS011;72737;53.332;6.514;2024-02-26T07:22:07;3.17;;;0.82;;
82950;SDS011;72737;53.332;6.514;2024-02-26T07:24:35;3.55;;;0.80;;
82950;SDS011;72737;53.332;6.514;2024-02-26T07:27:08;3.72;;;0.80;;
82950;SDS011;72737;53.332;6.514;2024-02-26T07:29:33;5.55;;;0.90;;
82950;SDS011;72737;53.332;6.514;2024-02-26T07:31:59;2.47;;;0.70;;
82950;SDS011;72737;53.332;6.514;2024-02-26T07:34:25;1.73;;;0.70;;
82950;SDS011;72737;53.332;6.514;2024-02-26T07:36:54;4.90;;;1.00;;
82950;SDS011;72737;53.332;6.514;2024-02-26T07:39:22;4.57;;;0.70;;
82950;SDS011;72737;53.332;6.514;2024-02-26T07:41:47;3.47;;;0.80;;
82950;SDS011;72737;53.332;6.514;2024-02-26T07:44:15;1.58;;;0.77;;
82950;SDS011;72737;53.332;6.514;2024-02-26T07:46:40;3.20;;;0.80;;
82950;SDS011;72737;53.332;6.514;2024-02-26T07:49:06;2.33;;;0.70;;
82950;SDS011;72737;53.332;6.514;2024-02-26T07:51:31;5.35;;;0.90;;
82950;SDS011;72737;53.332;6.514;2024-02-26T07:53:56;3.17;;;0.82;;
82950;SDS011;72737;53.332;6.514;2024-02-26T07:56:23;1.85;;;0.80;;
82950;SDS011;72737;53.332;6.514;2024-02-26T07:58:48;5.10;;;0.85;;
82950;SDS011;72737;53.332;6.514;2024-02-26T08:01:15;2.15;;;0.80;;
82950;SDS011;72737;53.332;6.514;2024-02-26T08:03:40;2.20;;;0.65;;
82950;SDS011;72737;53.332;6.514;2024-02-26T08:06:07;3.35;;;0.75;;
82950;SDS011;72737;53.332;6.514;2024-02-26T08:08:33;4.53;;;1.08;;
82950;SDS011;72737;53.332;6.514;2024-02-26T08:10:59;1.63;;;0.63;;
82950;SDS011;72737;53.332;6.514;2024-02-26T08:13:25;2.28;;;0.65;;
82950;SDS011;72737;53.332;6.514;2024-02-26T08:15:51;2.22;;;0.77;;
82950;SDS011;72737;53.332;6.514;2024-02-26T08:18:17;5.13;;;1.08;;
82950;SDS011;72737;53.332;6.514;2024-02-26T08:20:43;5.30;;;0.90;;
82950;SDS011;72737;53.332;6.514;2024-02-26T08:23:09;2.20;;;0.60;;
82950;SDS011;72737;53.332;6.514;2024-02-26T08:25:35;3.85;;;0.80;;
82950;SDS011;72737;53.332;6.514;2024-02-26T08:28:00;3.28;;;0.70;;
82950;SDS011;72737;53.332;6.514;2024-02-26T08:30:27;4.43;;;0.80;;
82950;SDS011;72737;53.332;6.514;2024-02-26T08:32:52;4.20;;;0.82;;
82950;SDS011;72737;53.332;6.514;2024-02-26T08:35:18;3.25;;;0.70;;
82950;SDS011;72737;53.332;6.514;2024-02-26T08:37:44;1.65;;;0.60;;
82950;SDS011;72737;53.332;6.514;2024-02-26T08:40:11;3.30;;;0.80;;
82950;SDS011;72737;53.332;6.514;2024-02-26T08:42:37;4.22;;;0.90;;
82950;SDS011;72737;53.332;6.514;2024-02-26T08:45:02;4.10;;;0.80;;
82950;SDS011;72737;53.332;6.514;2024-02-26T08:47:28;1.98;;;0.52;;
82950;SDS011;72737;53.332;6.514;2024-02-26T08:49:53;2.63;;;0.80;;
82950;SDS011;72737;53.332;6.514;2024-02-26T08:52:19;2.15;;;0.63;;
82950;SDS011;72737;53.332;6.514;2024-02-26T08:54:46;2.50;;;0.60;;
82950;SDS011;72737;53.332;6.514;2024-02-26T08:57:12;3.33;;;0.70;;
82950;SDS011;72737;53.332;6.514;2024-02-26T08:59:38;3.13;;;0.80;;
82950;SDS011;72737;53.332;6.514;2024-02-26T09:02:03;4.28;;;0.60;;
82950;SDS011;72737;53.332;6.514;2024-02-26T09:04:28;0.85;;;0.47;;
82950;SDS011;72737;53.332;6.514;2024-02-26T09:06:54;3.60;;;0.70;;
82950;SDS011;72737;53.332;6.514;2024-02-26T09:09:19;3.45;;;0.85;;
82950;SDS011;72737;53.332;6.514;2024-02-26T09:11:47;2.72;;;0.57;;
82950;SDS011;72737;53.332;6.514;2024-02-26T09:14:14;3.80;;;0.68;;
82950;SDS011;72737;53.332;6.514;2024-02-26T09:16:40;3.80;;;0.60;;
82950;SDS011;72737;53.332;6.514;2024-02-26T09:19:05;3.25;;;0.80;;
82950;SDS011;72737;53.332;6.514;2024-02-26T09:21:31;3.13;;;0.60;;
82950;SDS011;72737;53.332;6.514;2024-02-26T09:23:56;2.28;;;0.60;;
82950;SDS011;72737;53.332;6.514;2024-02-26T09:26:21;4.95;;;0.82;;
82950;SDS011;72737;53.332;6.514;2024-02-26T09:28:48;1.92;;;0.55;;
82950;SDS011;72737;53.332;6.514;2024-02-26T09:31:14;3.20;;;0.60;;
82950;SDS011;72737;53.332;6.514;2024-02-26T09:33:42;2.88;;;0.70;;
82950;SDS011;72737;53.332;6.514;2024-02-26T09:36:07;4.13;;;0.93;;
82950;SDS011;72737;53.332;6.514;2024-02-26T09:38:34;2.90;;;0.80;;
82950;SDS011;72737;53.332;6.514;2024-02-26T09:41:02;2.97;;;0.90;;
82950;SDS011;72737;53.332;6.514;2024-02-26T09:43:35;1.98;;;0.77;;
82950;SDS011;72737;53.332;6.514;2024-02-26T09:46:05;5.68;;;0.70;;
82950;SDS011;72737;53.332;6.514;2024-02-26T09:48:31;4.60;;;0.75;;
82950;SDS011;72737;53.332;6.514;2024-02-26T09:50:59;3.60;;;0.90;;
82950;SDS011;72737;53.332;6.514;2024-02-26T09:53:27;2.45;;;0.80;;
82950;SDS011;72737;53.332;6.514;2024-02-26T09:55:56;6.00;;;0.80;;
82950;SDS011;72737;53.332;6.514;2024-02-26T09:58:22;2.55;;;0.80;;
82950;SDS011;72737;53.332;6.514;2024-02-26T10:00:51;4.95;;;0.80;;
82950;SDS011;72737;53.332;6.514;2024-02-26T10:03:21;4.72;;;0.70;;
82950;SDS011;72737;53.332;6.514;2024-02-26T10:05:53;3.70;;;0.80;;
82950;SDS011;72737;53.332;6.514;2024-02-26T10:08:22;4.88;;;1.00;;
82950;SDS011;72737;53.332;6.514;2024-02-26T10:10:48;3.53;;;0.60;;
82950;SDS011;72737;53.332;6.514;2024-02-26T10:13:17;2.33;;;0.60;;
82950;SDS011;72737;53.332;6.514;2024-02-26T10:15:44;3.95;;;0.68;;
82950;SDS011;72737;53.332;6.514;2024-02-26T10:18:10;4.13;;;0.80;;
82950;SDS011;72737;53.332;6.514;2024-02-26T10:20:35;4.60;;;0.90;;
82950;SDS011;72737;53.332;6.514;2024-02-26T10:23:04;2.55;;;0.90;;
82950;SDS011;72737;53.332;6.514;2024-02-26T10:25:30;4.00;;;0.73;;
82950;SDS011;72737;53.332;6.514;2024-02-26T10:27:59;6.10;;;0.95;;
82950;SDS011;72737;53.332;6.514;2024-02-26T10:30:29;2.92;;;0.60;;
82950;SDS011;72737;53.332;6.514;2024-02-26T10:32:55;3.58;;;0.80;;
82950;SDS011;72737;53.332;6.514;2024-02-26T10:35:21;3.65;;;0.77;;
82950;SDS011;72737;53.332;6.514;2024-02-26T10:37:46;5.45;;;0.90;;
82950;SDS011;72737;53.332;6.514;2024-02-26T10:40:13;2.55;;;0.75;;
82950;SDS011;72737;53.332;6.514;2024-02-26T10:42:40;3.45;;;0.70;;
82950;SDS011;72737;53.332;6.514;2024-02-26T10:45:06;3.25;;;0.98;;
82950;SDS011;72737;53.332;6.514;2024-02-26T10:47:34;1.75;;;0.70;;
82950;SDS011;72737;53.332;6.514;2024-02-26T10:50:04;3.00;;;0.93;;
82950;SDS011;72737;53.332;6.514;2024-02-26T10:52:31;3.13;;;0.90;;
82950;SDS011;72737;53.332;6.514;2024-02-26T10:55:01;2.97;;;0.70;;
82950;SDS011;72737;53.332;6.514;2024-02-26T10:57:29;1.50;;;0.60;;
82950;SDS011;72737;53.332;6.514;2024-02-26T10:59:58;2.03;;;0.50;;
82950;SDS011;72737;53.332;6.514;2024-02-26T11:04:50;4.07;;;0.80;;
82950;SDS011;72737;53.332;6.514;2024-02-26T11:07:16;2.65;;;1.00;;
82950;SDS011;72737;53.332;6.514;2024-02-26T11:09:43;1.65;;;0.60;;
82950;SDS011;72737;53.332;6.514;2024-02-26T11:12:16;3.92;;;1.05;;
82950;SDS011;72737;53.332;6.514;2024-02-26T11:14:44;4.30;;;0.80;;
82950;SDS011;72737;53.332;6.514;2024-02-26T11:17:11;2.90;;;0.70;;
82950;SDS011;72737;53.332;6.514;2024-02-26T11:19:38;3.05;;;0.90;;
82950;SDS011;72737;53.332;6.514;2024-02-26T11:22:06;2.10;;;0.70;;
82950;SDS011;72737;53.332;6.514;2024-02-26T11:24:32;1.08;;;0.50;;
82950;SDS011;72737;53.332;6.514;2024-02-26T11:26:58;2.95;;;0.70;;
82950;SDS011;72737;53.332;6.514;2024-02-26T11:29:37;2.13;;;0.80;;
82950;SDS011;72737;53.332;6.514;2024-02-26T11:32:06;2.08;;;0.80;;
82950;SDS011;72737;53.332;6.514;2024-02-26T11:34:32;3.00;;;0.75;;
82950;SDS011;72737;53.332;6.514;2024-02-26T11:37:08;2.60;;;0.70;;
82950;SDS011;72737;53.332;6.514;2024-02-26T11:39:43;3.38;;;0.70;;
82950;SDS011;72737;53.332;6.514;2024-02-26T11:42:14;3.20;;;0.90;;
82950;SDS011;72737;53.332;6.514;2024-02-26T11:44:42;2.63;;;0.68;;
82950;SDS011;72737;53.332;6.514;2024-02-26T11:47:11;1.95;;;0.60;;
82950;SDS011;72737;53.332;6.514;2024-02-26T11:49:37;1.27;;;0.60;;
82950;SDS011;72737;53.332;6.514;2024-02-26T11:52:05;2.47;;;0.85;;
82950;SDS011;72737;53.332;6.514;2024-02-26T11:54:51;2.28;;;0.80;;
82950;SDS011;72737;53.332;6.514;2024-02-26T11:57:25;2.38;;;0.80;;
82950;SDS011;72737;53.332;6.514;2024-02-26T11:59:55;2.28;;;0.70;;
82950;SDS011;72737;53.332;6.514;2024-02-26T12:02:40;2.85;;;0.80;;
82950;SDS011;72737;53.332;6.514;2024-02-26T12:05:12;3.45;;;0.98;;
82950;SDS011;72737;53.332;6.514;2024-02-26T12:07:42;4.75;;;0.98;;
82950;SDS011;72737;53.332;6.514;2024-02-26T12:10:21;3.42;;;0.98;;
82950;SDS011;72737;53.332;6.514;2024-02-26T12:12:54;2.47;;;0.70;;
82950;SDS011;72737;53.332;6.514;2024-02-26T12:15:23;3.97;;;0.80;;
82950;SDS011;72737;53.332;6.514;2024-02-26T12:17:49;2.58;;;0.60;;
82950;SDS011;72737;53.332;6.514;2024-02-26T12:20:15;1.92;;;0.63;;
82950;SDS011;72737;53.332;6.514;2024-02-26T12:22:44;2.53;;;0.80;;
82950;SDS011;72737;53.332;6.514;2024-02-26T12:25:13;1.85;;;0.80;;
82950;SDS011;72737;53.332;6.514;2024-02-26T12:27:40;2.72;;;0.75;;
82950;SDS011;72737;53.332;6.514;2024-02-26T12:30:05;3.03;;;0.60;;
82950;SDS011;72737;53.332;6.514;2024-02-26T12:32:32;2.42;;;0.60;;
82950;SDS011;72737;53.332;6.514;2024-02-26T12:34:58;2.88;;;0.80;;
82950;SDS011;72737;53.332;6.514;2024-02-26T12:37:24;1.95;;;0.88;;
82950;SDS011;72737;53.332;6.514;2024-02-26T12:39:51;3.15;;;0.70;;
82950;SDS011;72737;53.332;6.514;2024-02-26T12:42:16;3.22;;;0.70;;
82950;SDS011;72737;53.332;6.514;2024-02-26T12:44:44;3.00;;;0.80;;
82950;SDS011;72737;53.332;6.514;2024-02-26T12:47:11;6.22;;;1.02;;
82950;SDS011;72737;53.332;6.514;2024-02-26T12:49:42;3.10;;;0.90;;
82950;SDS011;72737;53.332;6.514;2024-02-26T12:52:09;4.80;;;1.10;;
82950;SDS011;72737;53.332;6.514;2024-02-26T12:54:35;5.55;;;1.10;;
82950;SDS011;72737;53.332;6.514;2024-02-26T12:57:04;7.32;;;1.10;;
82950;SDS011;72737;53.332;6.514;2024-02-26T12:59:31;6.78;;;1.20;;
82950;SDS011;72737;53.332;6.514;2024-02-26T13:04:24;5.70;;;1.08;;
82950;SDS011;72737;53.332;6.514;2024-02-26T13:09:16;5.23;;;1.10;;
82950;SDS011;72737;53.332;6.514;2024-02-26T13:11:43;4.95;;;1.40;;
82950;SDS011;72737;53.332;6.514;2024-02-26T13:14:20;7.63;;;1.63;;
82950;SDS011;72737;53.332;6.514;2024-02-26T13:16:54;10.02;;;2.42;;
82950;SDS011;72737;53.332;6.514;2024-02-26T13:19:21;10.00;;;2.42;;
82950;SDS011;72737;53.332;6.514;2024-02-26T13:21:46;9.68;;;2.40;;
82950;SDS011;72737;53.332;6.514;2024-02-26T13:24:14;14.50;;;2.63;;
82950;SDS011;72737;53.332;6.514;2024-02-26T13:26:40;14.52;;;3.63;;
82950;SDS011;72737;53.332;6.514;2024-02-26T13:29:05;16.27;;;3.63;;
82950;SDS011;72737;53.332;6.514;2024-02-26T13:31:31;13.65;;;3.28;;
82950;SDS011;72737;53.332;6.514;2024-02-26T13:34:03;15.82;;;3.55;;
82950;SDS011;72737;53.332;6.514;2024-02-26T13:36:29;13.13;;;3.22;;
82950;SDS011;72737;53.332;6.514;2024-02-26T13:38:54;15.98;;;3.58;;
82950;SDS011;72737;53.332;6.514;2024-02-26T13:41:21;16.42;;;4.25;;
82950;SDS011;72737;53.332;6.514;2024-02-26T13:43:48;19.05;;;4.30;;
82950;SDS011;72737;53.332;6.514;2024-02-26T13:46:13;15.85;;;3.88;;
82950;SDS011;72737;53.332;6.514;2024-02-26T13:48:40;17.73;;;4.15;;
82950;SDS011;72737;53.332;6.514;2024-02-26T13:51:07;20.88;;;4.13;;
82950;SDS011;72737;53.332;6.514;2024-02-26T13:53:32;16.55;;;3.92;;
82950;SDS011;72737;53.332;6.514;2024-02-26T13:56:00;20.33;;;4.07;;
82950;SDS011;72737;53.332;6.514;2024-02-26T13:58:26;15.07;;;3.85;;
82950;SDS011;72737;53.332;6.514;2024-02-26T14:00:52;14.32;;;3.53;;
82950;SDS011;72737;53.332;6.514;2024-02-26T14:03:18;15.02;;;3.45;;
82950;SDS011;72737;53.332;6.514;2024-02-26T14:05:44;19.42;;;3.40;;
82950;SDS011;72737;53.332;6.514;2024-02-26T14:08:10;18.67;;;4.50;;
82950;SDS011;72737;53.332;6.514;2024-02-26T14:10:35;15.65;;;3.70;;
82950;SDS011;72737;53.332;6.514;2024-02-26T14:13:01;19.20;;;3.95;;
82950;SDS011;72737;53.332;6.514;2024-02-26T14:15:27;17.48;;;4.00;;
82950;SDS011;72737;53.332;6.514;2024-02-26T14:17:53;15.65;;;3.60;;
82950;SDS011;72737;53.332;6.514;2024-02-26T14:20:22;14.45;;;3.40;;
82950;SDS011;72737;53.332;6.514;2024-02-26T14:22:51;13.38;;;3.63;;
82950;SDS011;72737;53.332;6.514;2024-02-26T14:25:18;14.65;;;4.00;;
82950;SDS011;72737;53.332;6.514;2024-02-26T14:27:45;12.48;;;3.33;;
82950;SDS011;72737;53.332;6.514;2024-02-26T14:30:11;15.10;;;3.30;;
82950;SDS011;72737;53.332;6.514;2024-02-26T14:32:37;15.27;;;3.63;;
82950;SDS011;72737;53.332;6.514;2024-02-26T14:35:04;12.82;;;3.92;;
82950;SDS011;72737;53.332;6.514;2024-02-26T14:37:34;12.07;;;3.45;;
82950;SDS011;72737;53.332;6.514;2024-02-26T14:40:00;13.82;;;3.25;;
82950;SDS011;72737;53.332;6.514;2024-02-26T14:42:27;13.48;;;3.75;;
82950;SDS011;72737;53.332;6.514;2024-02-26T14:44:53;15.00;;;3.53;;
82950;SDS011;72737;53.332;6.514;2024-02-26T14:47:19;14.23;;;3.28;;
82950;SDS011;72737;53.332;6.514;2024-02-26T14:49:44;11.52;;;2.85;;
82950;SDS011;72737;53.332;6.514;2024-02-26T14:52:12;13.20;;;3.17;;
82950;SDS011;72737;53.332;6.514;2024-02-26T14:54:38;11.63;;;3.35;;